sensor_id;sensor_type;location;lat;lon;timestamp;P1;durP1;ratioP1;P2;durP2;ratioP2
52964;SDS011;42923;53.220;6.528;2023-11-21T00:00:19;27.85;;;6.43;;
52964;SDS011;42923;53.220;6.528;2023-11-21T00:02:45;21.08;;;6.00;;
52964;SDS011;42923;53.220;6.528;2023-11-21T00:05:12;26.73;;;6.35;;
52964;SDS011;42923;53.220;6.528;2023-11-21T00:07:42;20.08;;;6.10;;
52964;SDS011;42923;53.220;6.528;2023-11-21T00:10:09;27.48;;;5.97;;
52964;SDS011;42923;53.220;6.528;2023-11-21T00:12:36;29.00;;;6.97;;
52964;SDS011;42923;53.220;6.528;2023-11-21T00:15:02;17.98;;;5.65;;
52964;SDS011;42923;53.220;6.528;2023-11-21T00:17:30;21.50;;;6.25;;
52964;SDS011;42923;53.220;6.528;2023-11-21T00:19:56;26.90;;;7.32;;
52964;SDS011;42923;53.220;6.528;2023-11-21T00:22:22;23.23;;;6.28;;
52964;SDS011;42923;53.220;6.528;2023-11-21T00:24:47;20.13;;;5.43;;
52964;SDS011;42923;53.220;6.528;2023-11-21T00:27:13;26.35;;;6.30;;
52964;SDS011;42923;53.220;6.528;2023-11-21T00:29:39;26.73;;;6.80;;
52964;SDS011;42923;53.220;6.528;2023-11-21T00:32:05;32.75;;;7.30;;
52964;SDS011;42923;53.220;6.528;2023-11-21T00:34:32;24.90;;;5.78;;
52964;SDS011;42923;53.220;6.528;2023-11-21T00:36:59;24.98;;;6.22;;
52964;SDS011;42923;53.220;6.528;2023-11-21T00:39:25;27.48;;;7.45;;
52964;SDS011;42923;53.220;6.528;2023-11-21T00:41:51;27.83;;;6.60;;
52964;SDS011;42923;53.220;6.528;2023-11-21T00:44:17;28.90;;;7.00;;
52964;SDS011;42923;53.220;6.528;2023-11-21T00:46:43;32.22;;;7.25;;
52964;SDS011;42923;53.220;6.528;2023-11-21T00:49:09;40.28;;;8.27;;
52964;SDS011;42923;53.220;6.528;2023-11-21T00:51:35;23.23;;;7.72;;
52964;SDS011;42923;53.220;6.528;2023-11-21T00:54:01;35.90;;;8.27;;
52964;SDS011;42923;53.220;6.528;2023-11-21T00:56:27;29.75;;;8.07;;
52964;SDS011;42923;53.220;6.528;2023-11-21T00:58:53;32.70;;;8.38;;
52964;SDS011;42923;53.220;6.528;2023-11-21T01:01:19;22.15;;;7.50;;
52964;SDS011;42923;53.220;6.528;2023-11-21T01:03:48;32.53;;;8.18;;
52964;SDS011;42923;53.220;6.528;2023-11-21T01:06:14;40.70;;;7.60;;
52964;SDS011;42923;53.220;6.528;2023-11-21T01:08:41;28.77;;;8.35;;
52964;SDS011;42923;53.220;6.528;2023-11-21T01:11:09;38.17;;;7.53;;
52964;SDS011;42923;53.220;6.528;2023-11-21T01:13:37;35.22;;;8.07;;
52964;SDS011;42923;53.220;6.528;2023-11-21T01:16:04;27.95;;;7.90;;
52964;SDS011;42923;53.220;6.528;2023-11-21T01:18:31;36.22;;;9.23;;
52964;SDS011;42923;53.220;6.528;2023-11-21T01:20:57;34.42;;;8.95;;
52964;SDS011;42923;53.220;6.528;2023-11-21T01:23:25;38.58;;;7.90;;
52964;SDS011;42923;53.220;6.528;2023-11-21T01:25:52;32.13;;;10.27;;
52964;SDS011;42923;53.220;6.528;2023-11-21T01:28:18;30.15;;;9.95;;
52964;SDS011;42923;53.220;6.528;2023-11-21T01:30:44;39.15;;;9.32;;
52964;SDS011;42923;53.220;6.528;2023-11-21T01:33:11;30.52;;;9.57;;
52964;SDS011;42923;53.220;6.528;2023-11-21T01:35:37;36.30;;;9.45;;
52964;SDS011;42923;53.220;6.528;2023-11-21T01:38:02;43.85;;;10.00;;
52964;SDS011;42923;53.220;6.528;2023-11-21T01:40:29;32.95;;;10.10;;
52964;SDS011;42923;53.220;6.528;2023-11-21T01:42:56;36.85;;;10.63;;
52964;SDS011;42923;53.220;6.528;2023-11-21T01:45:22;43.15;;;9.90;;
52964;SDS011;42923;53.220;6.528;2023-11-21T01:47:50;39.22;;;11.43;;
52964;SDS011;42923;53.220;6.528;2023-11-21T01:50:16;43.13;;;11.57;;
52964;SDS011;42923;53.220;6.528;2023-11-21T01:52:46;39.75;;;10.40;;
52964;SDS011;42923;53.220;6.528;2023-11-21T01:55:12;35.33;;;10.15;;
52964;SDS011;42923;53.220;6.528;2023-11-21T01:57:43;36.10;;;11.75;;
52964;SDS011;42923;53.220;6.528;2023-11-21T02:00:09;45.22;;;11.18;;
52964;SDS011;42923;53.220;6.528;2023-11-21T02:02:44;53.15;;;12.15;;
52964;SDS011;42923;53.220;6.528;2023-11-21T02:05:11;48.63;;;11.85;;
52964;SDS011;42923;53.220;6.528;2023-11-21T02:07:39;36.42;;;11.32;;
52964;SDS011;42923;53.220;6.528;2023-11-21T02:10:06;47.70;;;12.93;;
52964;SDS011;42923;53.220;6.528;2023-11-21T02:12:33;45.33;;;11.85;;
52964;SDS011;42923;53.220;6.528;2023-11-21T02:15:02;43.45;;;11.68;;
52964;SDS011;42923;53.220;6.528;2023-11-21T02:17:30;54.42;;;13.80;;
52964;SDS011;42923;53.220;6.528;2023-11-21T02:19:57;38.85;;;12.35;;
52964;SDS011;42923;53.220;6.528;2023-11-21T02:22:24;51.28;;;13.77;;
52964;SDS011;42923;53.220;6.528;2023-11-21T02:24:55;47.03;;;13.52;;
52964;SDS011;42923;53.220;6.528;2023-11-21T02:27:23;51.78;;;13.85;;
52964;SDS011;42923;53.220;6.528;2023-11-21T02:29:49;36.30;;;13.32;;
52964;SDS011;42923;53.220;6.528;2023-11-21T02:32:15;42.47;;;13.45;;
52964;SDS011;42923;53.220;6.528;2023-11-21T02:34:44;55.65;;;13.00;;
52964;SDS011;42923;53.220;6.528;2023-11-21T02:37:10;45.85;;;13.10;;
52964;SDS011;42923;53.220;6.528;2023-11-21T02:39:35;59.22;;;15.13;;
52964;SDS011;42923;53.220;6.528;2023-11-21T02:42:01;40.85;;;13.13;;
52964;SDS011;42923;53.220;6.528;2023-11-21T02:44:27;48.22;;;13.02;;
52964;SDS011;42923;53.220;6.528;2023-11-21T02:46:53;49.40;;;14.23;;
52964;SDS011;42923;53.220;6.528;2023-11-21T02:49:18;57.40;;;15.05;;
52964;SDS011;42923;53.220;6.528;2023-11-21T02:51:44;59.65;;;14.57;;
52964;SDS011;42923;53.220;6.528;2023-11-21T02:54:10;47.55;;;14.10;;
52964;SDS011;42923;53.220;6.528;2023-11-21T02:56:36;51.97;;;14.93;;
52964;SDS011;42923;53.220;6.528;2023-11-21T02:59:02;61.58;;;14.68;;
52964;SDS011;42923;53.220;6.528;2023-11-21T03:01:28;50.55;;;15.50;;
52964;SDS011;42923;53.220;6.528;2023-11-21T03:03:54;59.58;;;15.20;;
52964;SDS011;42923;53.220;6.528;2023-11-21T03:06:21;57.72;;;15.07;;
52964;SDS011;42923;53.220;6.528;2023-11-21T03:08:47;46.78;;;13.80;;
52964;SDS011;42923;53.220;6.528;2023-11-21T03:11:12;52.40;;;12.98;;
52964;SDS011;42923;53.220;6.528;2023-11-21T03:13:42;59.65;;;13.95;;
52964;SDS011;42923;53.220;6.528;2023-11-21T03:16:11;39.60;;;13.90;;
52964;SDS011;42923;53.220;6.528;2023-11-21T03:18:38;47.97;;;14.75;;
52964;SDS011;42923;53.220;6.528;2023-11-21T03:21:07;47.38;;;14.07;;
52964;SDS011;42923;53.220;6.528;2023-11-21T03:23:36;49.88;;;15.45;;
52964;SDS011;42923;53.220;6.528;2023-11-21T03:26:03;51.20;;;14.15;;
52964;SDS011;42923;53.220;6.528;2023-11-21T03:28:29;43.42;;;14.98;;
52964;SDS011;42923;53.220;6.528;2023-11-21T03:30:55;48.58;;;14.07;;
52964;SDS011;42923;53.220;6.528;2023-11-21T03:33:21;54.85;;;14.50;;
52964;SDS011;42923;53.220;6.528;2023-11-21T03:35:47;70.20;;;17.85;;
52964;SDS011;42923;53.220;6.528;2023-11-21T03:38:14;63.78;;;16.83;;
52964;SDS011;42923;53.220;6.528;2023-11-21T03:40:41;65.80;;;16.80;;
52964;SDS011;42923;53.220;6.528;2023-11-21T03:43:07;60.05;;;15.98;;
52964;SDS011;42923;53.220;6.528;2023-11-21T03:45:33;44.28;;;14.85;;
52964;SDS011;42923;53.220;6.528;2023-11-21T03:47:58;57.13;;;15.40;;
52964;SDS011;42923;53.220;6.528;2023-11-21T03:50:30;83.25;;;15.43;;
52964;SDS011;42923;53.220;6.528;2023-11-21T03:52:56;73.07;;;16.48;;
52964;SDS011;42923;53.220;6.528;2023-11-21T03:55:22;72.30;;;16.45;;
52964;SDS011;42923;53.220;6.528;2023-11-21T03:57:51;54.13;;;14.93;;
52964;SDS011;42923;53.220;6.528;2023-11-21T04:00:18;49.90;;;14.05;;
52964;SDS011;42923;53.220;6.528;2023-11-21T04:02:47;49.08;;;14.23;;
52964;SDS011;42923;53.220;6.528;2023-11-21T04:05:12;47.28;;;14.23;;
52964;SDS011;42923;53.220;6.528;2023-11-21T04:07:38;36.55;;;12.68;;
52964;SDS011;42923;53.220;6.528;2023-11-21T04:10:04;44.50;;;13.70;;
52964;SDS011;42923;53.220;6.528;2023-11-21T04:12:33;49.20;;;14.23;;
52964;SDS011;42923;53.220;6.528;2023-11-21T04:15:00;50.80;;;14.18;;
52964;SDS011;42923;53.220;6.528;2023-11-21T04:17:25;53.38;;;14.85;;
52964;SDS011;42923;53.220;6.528;2023-11-21T04:19:51;62.13;;;15.18;;
52964;SDS011;42923;53.220;6.528;2023-11-21T04:22:17;55.75;;;16.23;;
52964;SDS011;42923;53.220;6.528;2023-11-21T04:24:42;43.58;;;15.75;;
52964;SDS011;42923;53.220;6.528;2023-11-21T04:27:08;39.08;;;14.10;;
52964;SDS011;42923;53.220;6.528;2023-11-21T04:29:34;48.65;;;14.30;;
52964;SDS011;42923;53.220;6.528;2023-11-21T04:32:00;45.05;;;12.68;;
52964;SDS011;42923;53.220;6.528;2023-11-21T04:34:27;78.13;;;17.00;;
52964;SDS011;42923;53.220;6.528;2023-11-21T04:36:56;69.25;;;16.77;;
52964;SDS011;42923;53.220;6.528;2023-11-21T04:39:22;62.97;;;16.08;;
52964;SDS011;42923;53.220;6.528;2023-11-21T04:41:48;47.58;;;15.88;;
52964;SDS011;42923;53.220;6.528;2023-11-21T04:44:14;53.53;;;15.10;;
52964;SDS011;42923;53.220;6.528;2023-11-21T04:46:41;46.90;;;13.77;;
52964;SDS011;42923;53.220;6.528;2023-11-21T04:49:07;54.47;;;14.80;;
52964;SDS011;42923;53.220;6.528;2023-11-21T04:51:32;46.05;;;12.85;;
52964;SDS011;42923;53.220;6.528;2023-11-21T04:53:58;31.40;;;12.50;;
52964;SDS011;42923;53.220;6.528;2023-11-21T04:56:24;44.20;;;13.35;;
52964;SDS011;42923;53.220;6.528;2023-11-21T04:58:50;35.80;;;12.55;;
52964;SDS011;42923;53.220;6.528;2023-11-21T05:01:15;32.60;;;10.82;;
52964;SDS011;42923;53.220;6.528;2023-11-21T05:03:41;34.25;;;12.90;;
52964;SDS011;42923;53.220;6.528;2023-11-21T05:06:09;45.55;;;12.77;;
52964;SDS011;42923;53.220;6.528;2023-11-21T05:08:35;43.72;;;13.23;;
52964;SDS011;42923;53.220;6.528;2023-11-21T05:11:02;34.00;;;13.38;;
52964;SDS011;42923;53.220;6.528;2023-11-21T05:13:28;40.88;;;12.05;;
52964;SDS011;42923;53.220;6.528;2023-11-21T05:15:56;39.65;;;12.55;;
52964;SDS011;42923;53.220;6.528;2023-11-21T05:18:22;44.00;;;13.25;;
52964;SDS011;42923;53.220;6.528;2023-11-21T05:20:48;40.00;;;12.90;;
52964;SDS011;42923;53.220;6.528;2023-11-21T05:23:15;31.65;;;12.50;;
52964;SDS011;42923;53.220;6.528;2023-11-21T05:25:41;32.75;;;11.52;;
52964;SDS011;42923;53.220;6.528;2023-11-21T05:28:06;33.65;;;10.85;;
52964;SDS011;42923;53.220;6.528;2023-11-21T05:30:32;30.30;;;10.70;;
52964;SDS011;42923;53.220;6.528;2023-11-21T05:32:58;25.58;;;10.70;;
52964;SDS011;42923;53.220;6.528;2023-11-21T05:35:23;24.98;;;10.65;;
52964;SDS011;42923;53.220;6.528;2023-11-21T05:37:49;33.28;;;12.57;;
52964;SDS011;42923;53.220;6.528;2023-11-21T05:40:15;25.70;;;10.93;;
52964;SDS011;42923;53.220;6.528;2023-11-21T05:42:41;26.05;;;12.05;;
52964;SDS011;42923;53.220;6.528;2023-11-21T05:45:07;38.75;;;12.02;;
52964;SDS011;42923;53.220;6.528;2023-11-21T05:47:36;27.75;;;13.65;;
52964;SDS011;42923;53.220;6.528;2023-11-21T05:50:06;34.95;;;13.35;;
52964;SDS011;42923;53.220;6.528;2023-11-21T05:52:40;35.67;;;14.85;;
52964;SDS011;42923;53.220;6.528;2023-11-21T05:55:09;29.60;;;12.93;;
52964;SDS011;42923;53.220;6.528;2023-11-21T05:57:36;36.60;;;15.90;;
52964;SDS011;42923;53.220;6.528;2023-11-21T06:00:06;33.88;;;15.13;;
52964;SDS011;42923;53.220;6.528;2023-11-21T06:02:37;38.42;;;16.55;;
52964;SDS011;42923;53.220;6.528;2023-11-21T06:05:04;33.10;;;15.65;;
52964;SDS011;42923;53.220;6.528;2023-11-21T06:07:31;47.58;;;17.92;;
52964;SDS011;42923;53.220;6.528;2023-11-21T06:09:57;42.97;;;16.75;;
52964;SDS011;42923;53.220;6.528;2023-11-21T06:12:22;42.92;;;15.73;;
52964;SDS011;42923;53.220;6.528;2023-11-21T06:14:48;39.85;;;17.60;;
52964;SDS011;42923;53.220;6.528;2023-11-21T06:17:13;35.35;;;14.07;;
52964;SDS011;42923;53.220;6.528;2023-11-21T06:19:39;43.13;;;14.70;;
52964;SDS011;42923;53.220;6.528;2023-11-21T06:22:05;41.67;;;15.25;;
52964;SDS011;42923;53.220;6.528;2023-11-21T06:24:31;64.82;;;18.60;;
52964;SDS011;42923;53.220;6.528;2023-11-21T06:26:57;48.45;;;17.77;;
52964;SDS011;42923;53.220;6.528;2023-11-21T06:29:23;75.75;;;19.05;;
52964;SDS011;42923;53.220;6.528;2023-11-21T06:31:49;37.55;;;15.65;;
52964;SDS011;42923;53.220;6.528;2023-11-21T06:34:15;43.42;;;16.70;;
52964;SDS011;42923;53.220;6.528;2023-11-21T06:36:40;39.92;;;15.25;;
52964;SDS011;42923;53.220;6.528;2023-11-21T06:39:06;32.30;;;13.50;;
52964;SDS011;42923;53.220;6.528;2023-11-21T06:41:34;41.45;;;14.93;;
52964;SDS011;42923;53.220;6.528;2023-11-21T06:43:59;30.00;;;11.90;;
52964;SDS011;42923;53.220;6.528;2023-11-21T06:46:25;23.20;;;10.85;;
52964;SDS011;42923;53.220;6.528;2023-11-21T06:48:51;32.38;;;11.93;;
52964;SDS011;42923;53.220;6.528;2023-11-21T06:51:17;27.55;;;11.85;;
52964;SDS011;42923;53.220;6.528;2023-11-21T06:53:43;26.58;;;11.38;;
52964;SDS011;42923;53.220;6.528;2023-11-21T06:56:15;18.88;;;8.48;;
52964;SDS011;42923;53.220;6.528;2023-11-21T06:58:46;34.60;;;15.38;;
52964;SDS011;42923;53.220;6.528;2023-11-21T07:01:12;33.58;;;15.18;;
52964;SDS011;42923;53.220;6.528;2023-11-21T07:03:39;34.47;;;14.38;;
52964;SDS011;42923;53.220;6.528;2023-11-21T07:06:04;33.72;;;14.65;;
52964;SDS011;42923;53.220;6.528;2023-11-21T07:08:30;39.72;;;17.15;;
52964;SDS011;42923;53.220;6.528;2023-11-21T07:10:56;49.22;;;17.60;;
52964;SDS011;42923;53.220;6.528;2023-11-21T07:13:22;33.80;;;16.08;;
52964;SDS011;42923;53.220;6.528;2023-11-21T07:15:48;34.50;;;17.20;;
52964;SDS011;42923;53.220;6.528;2023-11-21T07:18:14;54.67;;;19.60;;
52964;SDS011;42923;53.220;6.528;2023-11-21T07:20:40;45.33;;;18.92;;
52964;SDS011;42923;53.220;6.528;2023-11-21T07:23:06;52.33;;;21.65;;
52964;SDS011;42923;53.220;6.528;2023-11-21T07:25:32;46.08;;;20.75;;
52964;SDS011;42923;53.220;6.528;2023-11-21T07:27:59;40.45;;;19.67;;
52964;SDS011;42923;53.220;6.528;2023-11-21T07:30:25;47.47;;;21.73;;
52964;SDS011;42923;53.220;6.528;2023-11-21T07:32:52;48.92;;;21.38;;
52964;SDS011;42923;53.220;6.528;2023-11-21T07:35:17;33.65;;;15.77;;
52964;SDS011;42923;53.220;6.528;2023-11-21T07:37:43;27.98;;;14.73;;
52964;SDS011;42923;53.220;6.528;2023-11-21T07:40:09;54.88;;;20.27;;
52964;SDS011;42923;53.220;6.528;2023-11-21T07:42:36;55.95;;;20.48;;
52964;SDS011;42923;53.220;6.528;2023-11-21T07:45:04;41.00;;;19.08;;
52964;SDS011;42923;53.220;6.528;2023-11-21T07:47:32;37.65;;;17.75;;
52964;SDS011;42923;53.220;6.528;2023-11-21T07:49:59;33.33;;;16.63;;
52964;SDS011;42923;53.220;6.528;2023-11-21T07:52:27;41.47;;;18.67;;
52964;SDS011;42923;53.220;6.528;2023-11-21T07:54:52;37.88;;;19.20;;
52964;SDS011;42923;53.220;6.528;2023-11-21T07:57:18;28.58;;;13.70;;
52964;SDS011;42923;53.220;6.528;2023-11-21T07:59:44;38.15;;;18.67;;
52964;SDS011;42923;53.220;6.528;2023-11-21T08:02:09;32.60;;;14.98;;
52964;SDS011;42923;53.220;6.528;2023-11-21T08:04:35;34.88;;;17.80;;
52964;SDS011;42923;53.220;6.528;2023-11-21T08:07:01;32.38;;;16.60;;
52964;SDS011;42923;53.220;6.528;2023-11-21T08:09:29;30.52;;;17.27;;
52964;SDS011;42923;53.220;6.528;2023-11-21T08:11:55;34.05;;;18.25;;
52964;SDS011;42923;53.220;6.528;2023-11-21T08:14:21;37.40;;;20.45;;
52964;SDS011;42923;53.220;6.528;2023-11-21T08:16:50;38.05;;;19.10;;
52964;SDS011;42923;53.220;6.528;2023-11-21T08:19:17;34.42;;;18.73;;
52964;SDS011;42923;53.220;6.528;2023-11-21T08:21:43;37.85;;;20.13;;
52964;SDS011;42923;53.220;6.528;2023-11-21T08:24:10;39.50;;;20.38;;
52964;SDS011;42923;53.220;6.528;2023-11-21T08:26:39;30.63;;;15.68;;
52964;SDS011;42923;53.220;6.528;2023-11-21T08:29:04;33.03;;;18.15;;
52964;SDS011;42923;53.220;6.528;2023-11-21T08:31:32;32.67;;;17.50;;
52964;SDS011;42923;53.220;6.528;2023-11-21T08:33:57;38.03;;;19.38;;
52964;SDS011;42923;53.220;6.528;2023-11-21T08:36:23;27.30;;;17.65;;
52964;SDS011;42923;53.220;6.528;2023-11-21T08:38:50;29.45;;;16.83;;
52964;SDS011;42923;53.220;6.528;2023-11-21T08:41:19;24.33;;;16.90;;
52964;SDS011;42923;53.220;6.528;2023-11-21T08:43:49;26.67;;;17.20;;
52964;SDS011;42923;53.220;6.528;2023-11-21T08:46:15;24.95;;;16.42;;
52964;SDS011;42923;53.220;6.528;2023-11-21T08:48:43;25.65;;;15.93;;
52964;SDS011;42923;53.220;6.528;2023-11-21T08:51:09;23.60;;;16.65;;
52964;SDS011;42923;53.220;6.528;2023-11-21T08:53:37;25.95;;;16.70;;
52964;SDS011;42923;53.220;6.528;2023-11-21T08:56:03;23.70;;;15.50;;
52964;SDS011;42923;53.220;6.528;2023-11-21T08:58:30;22.67;;;15.90;;
52964;SDS011;42923;53.220;6.528;2023-11-21T09:00:57;27.15;;;15.52;;
52964;SDS011;42923;53.220;6.528;2023-11-21T09:03:23;22.10;;;14.63;;
52964;SDS011;42923;53.220;6.528;2023-11-21T09:05:49;19.90;;;13.50;;
52964;SDS011;42923;53.220;6.528;2023-11-21T09:08:15;18.33;;;12.80;;
52964;SDS011;42923;53.220;6.528;2023-11-21T09:10:41;17.27;;;13.45;;
52964;SDS011;42923;53.220;6.528;2023-11-21T09:13:08;17.65;;;13.45;;
52964;SDS011;42923;53.220;6.528;2023-11-21T09:15:35;21.33;;;14.50;;
52964;SDS011;42923;53.220;6.528;2023-11-21T09:18:01;17.73;;;13.57;;
52964;SDS011;42923;53.220;6.528;2023-11-21T09:20:27;18.30;;;13.80;;
52964;SDS011;42923;53.220;6.528;2023-11-21T09:22:53;17.10;;;14.10;;
52964;SDS011;42923;53.220;6.528;2023-11-21T09:25:20;20.52;;;14.63;;
52964;SDS011;42923;53.220;6.528;2023-11-21T09:27:46;18.90;;;14.13;;
52964;SDS011;42923;53.220;6.528;2023-11-21T09:30:12;18.75;;;12.77;;
52964;SDS011;42923;53.220;6.528;2023-11-21T09:32:39;15.50;;;12.43;;
52964;SDS011;42923;53.220;6.528;2023-11-21T09:35:06;16.23;;;11.50;;
52964;SDS011;42923;53.220;6.528;2023-11-21T09:37:34;11.05;;;8.95;;
52964;SDS011;42923;53.220;6.528;2023-11-21T09:40:03;13.50;;;9.40;;
52964;SDS011;42923;53.220;6.528;2023-11-21T09:42:31;17.40;;;11.93;;
52964;SDS011;42923;53.220;6.528;2023-11-21T09:45:27;12.63;;;10.38;;
52964;SDS011;42923;53.220;6.528;2023-11-21T09:47:54;14.73;;;10.05;;
52964;SDS011;42923;53.220;6.528;2023-11-21T09:50:21;13.70;;;10.45;;
52964;SDS011;42923;53.220;6.528;2023-11-21T09:52:55;13.57;;;10.57;;
52964;SDS011;42923;53.220;6.528;2023-11-21T09:55:43;15.20;;;10.27;;
52964;SDS011;42923;53.220;6.528;2023-11-21T09:58:11;11.32;;;8.82;;
52964;SDS011;42923;53.220;6.528;2023-11-21T10:00:41;11.52;;;8.68;;
52964;SDS011;42923;53.220;6.528;2023-11-21T10:03:08;11.38;;;8.93;;
52964;SDS011;42923;53.220;6.528;2023-11-21T10:05:35;11.70;;;8.43;;
52964;SDS011;42923;53.220;6.528;2023-11-21T10:08:02;11.05;;;7.22;;
52964;SDS011;42923;53.220;6.528;2023-11-21T10:10:33;14.95;;;9.18;;
52964;SDS011;42923;53.220;6.528;2023-11-21T10:13:02;11.25;;;7.70;;
52964;SDS011;42923;53.220;6.528;2023-11-21T10:15:31;11.10;;;8.52;;
52964;SDS011;42923;53.220;6.528;2023-11-21T10:17:59;9.52;;;7.50;;
52964;SDS011;42923;53.220;6.528;2023-11-21T10:20:31;10.50;;;8.02;;
52964;SDS011;42923;53.220;6.528;2023-11-21T10:23:03;17.10;;;8.73;;
52964;SDS011;42923;53.220;6.528;2023-11-21T10:25:29;11.50;;;8.07;;
52964;SDS011;42923;53.220;6.528;2023-11-21T10:27:59;7.90;;;6.93;;
52964;SDS011;42923;53.220;6.528;2023-11-21T10:30:33;12.00;;;8.05;;
52964;SDS011;42923;53.220;6.528;2023-11-21T10:33:03;10.85;;;7.47;;
52964;SDS011;42923;53.220;6.528;2023-11-21T10:35:43;10.48;;;7.40;;
52964;SDS011;42923;53.220;6.528;2023-11-21T10:38:16;14.90;;;7.43;;
52964;SDS011;42923;53.220;6.528;2023-11-21T10:40:47;10.38;;;7.63;;
52964;SDS011;42923;53.220;6.528;2023-11-21T10:43:14;6.78;;;5.15;;
52964;SDS011;42923;53.220;6.528;2023-11-21T10:45:41;8.77;;;6.68;;
52964;SDS011;42923;53.220;6.528;2023-11-21T10:48:12;8.00;;;7.07;;
52964;SDS011;42923;53.220;6.528;2023-11-21T10:50:42;8.65;;;6.65;;
52964;SDS011;42923;53.220;6.528;2023-11-21T10:53:09;8.52;;;5.97;;
52964;SDS011;42923;53.220;6.528;2023-11-21T10:55:37;8.77;;;6.20;;
52964;SDS011;42923;53.220;6.528;2023-11-21T10:58:03;8.27;;;7.10;;
52964;SDS011;42923;53.220;6.528;2023-11-21T11:00:30;7.80;;;7.00;;
52964;SDS011;42923;53.220;6.528;2023-11-21T11:02:57;12.85;;;6.53;;
52964;SDS011;42923;53.220;6.528;2023-11-21T11:05:24;9.93;;;7.75;;
52964;SDS011;42923;53.220;6.528;2023-11-21T11:08:02;8.90;;;7.30;;
52964;SDS011;42923;53.220;6.528;2023-11-21T11:10:30;10.55;;;5.40;;
52964;SDS011;42923;53.220;6.528;2023-11-21T11:12:57;14.02;;;6.68;;
52964;SDS011;42923;53.220;6.528;2023-11-21T11:15:24;8.77;;;6.50;;
52964;SDS011;42923;53.220;6.528;2023-11-21T11:17:50;8.68;;;6.85;;
52964;SDS011;42923;53.220;6.528;2023-11-21T11:20:22;8.52;;;5.72;;
52964;SDS011;42923;53.220;6.528;2023-11-21T11:23:04;9.60;;;7.07;;
52964;SDS011;42923;53.220;6.528;2023-11-21T11:28:27;9.30;;;7.32;;
52964;SDS011;42923;53.220;6.528;2023-11-21T11:31:05;6.22;;;5.57;;
52964;SDS011;42923;53.220;6.528;2023-11-21T11:33:36;8.23;;;6.07;;
52964;SDS011;42923;53.220;6.528;2023-11-21T11:38:58;8.45;;;6.70;;
52964;SDS011;42923;53.220;6.528;2023-11-21T11:41:27;7.53;;;5.40;;
52964;SDS011;42923;53.220;6.528;2023-11-21T11:43:57;8.15;;;6.15;;
52964;SDS011;42923;53.220;6.528;2023-11-21T11:46:44;7.90;;;6.65;;
52964;SDS011;42923;53.220;6.528;2023-11-21T11:49:28;9.02;;;6.65;;
52964;SDS011;42923;53.220;6.528;2023-11-21T11:54:58;7.18;;;5.60;;
52964;SDS011;42923;53.220;6.528;2023-11-21T11:57:25;10.27;;;5.70;;
52964;SDS011;42923;53.220;6.528;2023-11-21T12:02:40;7.70;;;5.97;;
52964;SDS011;42923;53.220;6.528;2023-11-21T12:05:13;9.85;;;6.15;;
52964;SDS011;42923;53.220;6.528;2023-11-21T12:10:13;7.85;;;6.30;;
52964;SDS011;42923;53.220;6.528;2023-11-21T12:12:43;9.63;;;5.40;;
52964;SDS011;42923;53.220;6.528;2023-11-21T12:15:11;6.60;;;5.13;;
52964;SDS011;42923;53.220;6.528;2023-11-21T12:17:38;6.93;;;5.70;;
52964;SDS011;42923;53.220;6.528;2023-11-21T12:20:04;8.57;;;5.57;;
52964;SDS011;42923;53.220;6.528;2023-11-21T12:22:40;7.95;;;5.90;;
52964;SDS011;42923;53.220;6.528;2023-11-21T12:25:09;7.10;;;5.60;;
52964;SDS011;42923;53.220;6.528;2023-11-21T12:27:35;8.73;;;6.30;;
52964;SDS011;42923;53.220;6.528;2023-11-21T12:30:01;8.75;;;4.80;;
52964;SDS011;42923;53.220;6.528;2023-11-21T12:32:26;7.43;;;5.55;;
52964;SDS011;42923;53.220;6.528;2023-11-21T12:34:52;9.57;;;6.32;;
52964;SDS011;42923;53.220;6.528;2023-11-21T12:37:18;10.18;;;6.05;;
52964;SDS011;42923;53.220;6.528;2023-11-21T12:39:43;10.25;;;6.47;;
52964;SDS011;42923;53.220;6.528;2023-11-21T12:42:09;8.30;;;6.25;;
52964;SDS011;42923;53.220;6.528;2023-11-21T12:44:35;8.18;;;5.75;;
52964;SDS011;42923;53.220;6.528;2023-11-21T12:47:02;8.32;;;5.50;;
52964;SDS011;42923;53.220;6.528;2023-11-21T12:49:28;10.52;;;6.60;;
52964;SDS011;42923;53.220;6.528;2023-11-21T12:51:54;7.50;;;6.25;;
52964;SDS011;42923;53.220;6.528;2023-11-21T12:54:20;9.77;;;6.57;;
52964;SDS011;42923;53.220;6.528;2023-11-21T12:56:46;7.18;;;5.43;;
52964;SDS011;42923;53.220;6.528;2023-11-21T12:59:14;8.05;;;5.85;;
52964;SDS011;42923;53.220;6.528;2023-11-21T13:01:42;6.95;;;5.95;;
52964;SDS011;42923;53.220;6.528;2023-11-21T13:04:08;7.70;;;6.22;;
52964;SDS011;42923;53.220;6.528;2023-11-21T13:06:35;12.35;;;6.88;;
52964;SDS011;42923;53.220;6.528;2023-11-21T13:09:06;9.00;;;7.03;;
52964;SDS011;42923;53.220;6.528;2023-11-21T13:11:36;9.63;;;6.30;;
52964;SDS011;42923;53.220;6.528;2023-11-21T13:14:02;8.32;;;6.05;;
52964;SDS011;42923;53.220;6.528;2023-11-21T13:16:28;9.93;;;6.63;;
52964;SDS011;42923;53.220;6.528;2023-11-21T13:18:55;10.45;;;6.10;;
52964;SDS011;42923;53.220;6.528;2023-11-21T13:21:21;7.75;;;5.75;;
52964;SDS011;42923;53.220;6.528;2023-11-21T13:23:47;8.40;;;6.20;;
52964;SDS011;42923;53.220;6.528;2023-11-21T13:26:16;8.90;;;5.88;;
52964;SDS011;42923;53.220;6.528;2023-11-21T13:28:41;8.50;;;6.65;;
52964;SDS011;42923;53.220;6.528;2023-11-21T13:31:11;6.93;;;5.30;;
52964;SDS011;42923;53.220;6.528;2023-11-21T13:33:48;7.05;;;4.93;;
52964;SDS011;42923;53.220;6.528;2023-11-21T13:36:20;6.38;;;5.60;;
52964;SDS011;42923;53.220;6.528;2023-11-21T13:38:50;8.48;;;5.90;;
52964;SDS011;42923;53.220;6.528;2023-11-21T13:41:18;10.48;;;5.75;;
52964;SDS011;42923;53.220;6.528;2023-11-21T13:43:44;10.15;;;5.35;;
52964;SDS011;42923;53.220;6.528;2023-11-21T13:46:28;8.43;;;5.22;;
52964;SDS011;42923;53.220;6.528;2023-11-21T13:48:54;6.38;;;4.50;;
52964;SDS011;42923;53.220;6.528;2023-11-21T13:51:21;7.50;;;5.60;;
52964;SDS011;42923;53.220;6.528;2023-11-21T13:53:55;7.82;;;4.88;;
52964;SDS011;42923;53.220;6.528;2023-11-21T13:56:21;5.90;;;5.30;;
52964;SDS011;42923;53.220;6.528;2023-11-21T13:58:50;9.82;;;5.32;;
52964;SDS011;42923;53.220;6.528;2023-11-21T14:01:17;9.55;;;5.00;;
52964;SDS011;42923;53.220;6.528;2023-11-21T14:03:56;7.47;;;4.65;;
52964;SDS011;42923;53.220;6.528;2023-11-21T14:06:27;15.25;;;5.50;;
52964;SDS011;42923;53.220;6.528;2023-11-21T14:09:00;5.97;;;4.90;;
52964;SDS011;42923;53.220;6.528;2023-11-21T14:11:30;7.22;;;5.93;;
52964;SDS011;42923;53.220;6.528;2023-11-21T14:13:56;6.57;;;4.10;;
52964;SDS011;42923;53.220;6.528;2023-11-21T14:16:24;7.50;;;3.95;;
52964;SDS011;42923;53.220;6.528;2023-11-21T14:18:50;8.88;;;4.93;;
52964;SDS011;42923;53.220;6.528;2023-11-21T14:21:26;7.43;;;4.63;;
52964;SDS011;42923;53.220;6.528;2023-11-21T14:23:52;5.82;;;4.68;;
52964;SDS011;42923;53.220;6.528;2023-11-21T14:26:20;10.27;;;4.55;;
52964;SDS011;42923;53.220;6.528;2023-11-21T14:28:46;6.60;;;4.88;;
52964;SDS011;42923;53.220;6.528;2023-11-21T14:31:14;7.93;;;4.88;;
52964;SDS011;42923;53.220;6.528;2023-11-21T14:33:42;8.68;;;4.65;;
52964;SDS011;42923;53.220;6.528;2023-11-21T14:36:09;9.43;;;4.65;;
52964;SDS011;42923;53.220;6.528;2023-11-21T14:38:35;5.72;;;4.55;;
52964;SDS011;42923;53.220;6.528;2023-11-21T14:41:02;7.35;;;4.53;;
52964;SDS011;42923;53.220;6.528;2023-11-21T14:43:29;6.57;;;4.20;;
52964;SDS011;42923;53.220;6.528;2023-11-21T14:45:59;12.30;;;4.35;;